This is the latest recevied weather packets stored in our database for station/object DL9GRB-13. If no packets are shown the sender has not sent any weather packets the latest 10 day(s).
| Time | Temp. | Humidity | Pressure | Rain* | Wind** | Luminosity | Snow |
|---|---|---|---|---|---|---|---|
| 1777657387 | 18.89° C | 39% | 1023.5 hPa | 0 mm | - | 37 W/m² | - |
| 1777657207 | 18.89° C | 39% | 1023.7 hPa | 0 mm | - | 44 W/m² | - |
| 1777657027 | 18.89° C | 38% | 1023.8 hPa | 0 mm | - | 47 W/m² | - |
| 1777656847 | 19.44° C | 39% | 1023.9 hPa | 0 mm | - | 49 W/m² | - |
| 1777656667 | 19.44° C | 40% | 1024 hPa | 0 mm | - | 51 W/m² | - |
| 1777656487 | 19.44° C | 39% | 1023.8 hPa | 0 mm | - | 54 W/m² | - |
| 1777656307 | 19.44° C | 40% | 1024 hPa | 0 mm | - | 56 W/m² | - |
| 1777656126 | 19.44° C | 39% | 1024 hPa | 0 mm | - | 58 W/m² | - |
| 1777655946 | 19.44° C | 39% | 1024 hPa | 0 mm | - | 56 W/m² | - |
| 1777655767 | 19.44° C | 39% | 1023.8 hPa | 0 mm | - | 55 W/m² | - |
| 1777655586 | 19.44° C | 38% | 1024 hPa | 0 mm | - | 56 W/m² | - |
| 1777655406 | 19.44° C | 38% | 1024 hPa | 0 mm | - | 64 W/m² | - |
| 1777655227 | 19.44° C | 37% | 1024.1 hPa | 0 mm | - | 69 W/m² | - |
| 1777655047 | 20° C | 36% | 1024.2 hPa | 0 mm | - | 70 W/m² | - |
| 1777654867 | 20° C | 36% | 1024.1 hPa | 0 mm | - | 69 W/m² | - |
| 1777654687 | 20° C | 36% | 1024.4 hPa | 0 mm | - | 69 W/m² | - |
| 1777654507 | 20° C | 36% | 1024.4 hPa | 0 mm | - | 64 W/m² | - |
| 1777654327 | 20.56° C | 36% | 1024.2 hPa | 0 mm | - | 60 W/m² | - |
| 1777654147 | 20.56° C | 36% | 1024.5 hPa | 0 mm | - | 81 W/m² | - |
| 1777653967 | 20.56° C | 36% | 1024.3 hPa | 0 mm | - | 69 W/m² | - |
| 1777653787 | 20.56° C | 36% | 1024.5 hPa | 0 mm | - | 72 W/m² | - |
| 1777653607 | 20.56° C | 36% | 1024.5 hPa | 0 mm | - | 68 W/m² | - |
| 1777653427 | 20.56° C | 36% | 1024.6 hPa | 0 mm | - | 89 W/m² | - |
| 1777653247 | 20° C | 36% | 1024.7 hPa | 0 mm | - | 96 W/m² | - |
| 1777653067 | 20° C | 35% | 1024.7 hPa | 0 mm | - | 99 W/m² | - |
* Rain latest hour (hover to see other rain measurements)
** Current wind speed in m/s (hover to see current wind gust speed)